• Join FlightAware (Why Join?)
  • Login
  • US Flag 
09:21PM EDT


 

Airport Tracker/Info


-or-


 

Live Flight TrackerFlight Track Log ✈ EJA388 ✈ 24-Nov-2013 ✈ KTMB - KSNA

Flight Track Log - Related Links

Times and Time Zones

All times are in EST time to prevent confusion due to time zone crossing. See the EJA388 flight status page for this flight to view local times or setup timezone preferences in your user account.

Time Position Orientation Groundspeed Altitude Reporting Facility
EST Latitude Longitude Course Direction KTS MPH feet Rate Location/Type
11:04AM 25.6425 -80.4128 93° East 161 185 900  Level Miami Center
11:05AM 25.6397 -80.3483 93° East 203 234 2,000 1,020 Climbing Miami Center
11:06AM 25.5983 -80.3286 157° South 225 259 3,200 2,580 Climbing Miami Center
11:07AM 25.5700 -80.3831 240° Southwest 236 272 7,100 3,780 Climbing Miami Center
11:09AM 25.5997 -80.4439 298° West 247 284 11,000 2,820 Climbing Miami Center
11:09AM 25.6561 -80.4525 352° North 303 349 12,100 2,160 Climbing Miami Center
11:10AM 25.7456 -80.4597 356° North 328 377 14,600 1,860 Climbing Miami Center
11:11AM 25.8414 -80.4742 352° North 338 389 15,900 1,500 Climbing Miami Center
11:12AM 25.9256 -80.5367 326° Northwest 344 396 17,600 1,860 Climbing Miami Center
11:13AM 26.0050 -80.6086 321° Northwest 350 403 19,700 1,860 Climbing Miami Center
11:14AM 26.0869 -80.6783 323° Northwest 367 422 21,400 1,620 Climbing Miami Center
11:15AM 26.1725 -80.7550 321° Northwest 384 442 23,000 1,620 Climbing Miami Center
11:16AM 26.2461 -80.8200 322° Northwest 389 448 24,700 1,740 Climbing Miami Center
11:17AM 26.3397 -80.9042 321° Northwest 389 448 26,500 1,620 Climbing Miami Center
11:18AM 26.4194 -80.9694 324° Northwest 394 453 28,000 1,560 Climbing Miami Center
11:19AM 26.5172 -81.0542 322° Northwest 399 459 29,700 1,620 Climbing Miami Center
11:20AM 26.6122 -81.0878 342° North 393 452 31,300 1,620 Climbing Miami Center
11:21AM 26.7303 -81.1222 345° North 400 460 33,000 1,800 Climbing Miami Center
11:22AM 26.8358 -81.1539 345° North 393 452 34,900 1,800 Climbing Miami Center
11:23AM 26.9242 -81.2014 334° Northwest 372 428 36,700 1,380 Climbing Miami Center
11:24AM 26.9672 -81.2939 298° West 329 379 37,700 900 Climbing Miami Center
11:25AM 26.9958 -81.3858 289° West 334 384 38,600 960 Climbing Miami Center
11:26AM 27.0300 -81.4967 289° West 339 390 39,700 960 Climbing Miami Center
11:27AM 27.0600 -81.5958 289° West 339 390 40,600 660 Climbing Miami Center
11:28AM 27.0881 -81.6928 288° West 332 382 41,100 480 Climbing Miami Center
11:29AM 27.1144 -81.7825 288° West 332 382 41,600 480 Climbing Miami Center
11:30AM 27.1442 -81.8839 288° West 332 382 42,100 480 Climbing Miami Center
11:31AM 27.1781 -81.9928 289° West 332 382 42,600 420 Climbing Miami Center
11:32AM 27.2058 -82.0919 288° West 332 382 43,000 180 Climbing Miami Center
11:33AM 27.2356 -82.1939 288° West 337 388 43,000  Level Miami Center
11:34AM 27.2633 -82.2886 288° West 344 396 43,000  Level Miami Center
11:35AM 27.2928 -82.3903 288° West 349 402 43,000  Level Miami Center
11:36AM 27.3258 -82.5086 287° West 354 407 43,000  Level Miami Center
11:37AM 27.3592 -82.6156 289° West 354 407 43,000  Level Miami Center
11:38AM 27.3861 -82.7197 286° West 359 413 43,000  Level Miami Center
11:39AM 27.4133 -82.8192 287° West 359 413 43,000  Level Miami Center
11:40AM 27.4503 -82.9381 289° West 369 425 43,000  Level Miami Center
11:41AM 27.4831 -83.0497 288° West 369 425 43,000  Level Miami Center
11:42AM 27.5097 -83.1542 286° West 364 419 43,000  Level Miami Center
11:43AM 27.5372 -83.2397 290° West 364 419 43,000  Level Miami Center
11:44AM 27.5675 -83.3561 286° West 364 419 43,000  Level Miami Center
11:45AM 27.5981 -83.4633 288° West 364 419 43,000  Level Miami Center
11:46AM 27.6247 -83.5656 286° West 359 413 43,000  Level Miami Center
11:47AM 27.6614 -83.6706 292° West 359 413 43,000  Level Miami Center
11:48AM 27.6858 -83.7728 285° West 354 407 43,000  Level Miami Center
11:49AM 27.7161 -83.8778 288° West 354 407 43,000  Level Miami Center
11:51AM 27.7692 -84.0581 288° West 362 417 43,000  Level Jacksonville Center
11:52AM 27.7953 -84.1639 286° West 362 417 43,000  Level Jacksonville Center
11:53AM 27.8233 -84.2675 287° West 356 410 43,000  Level Jacksonville Center
11:54AM 27.8536 -84.3714 288° West 356 410 43,000  Level Jacksonville Center
11:55AM 27.8772 -84.4794 284° West 361 415 43,000  Level Jacksonville Center
11:56AM 27.9011 -84.5692 287° West 355 409 43,000  Level Jacksonville Center
11:57AM 27.9353 -84.6756 290° West 349 402 43,000  Level Jacksonville Center
11:58AM 27.9606 -84.7911 284° West 349 402 43,000  Level Jacksonville Center
11:59AM 27.9925 -84.8903 290° West 349 402 43,000  Level Jacksonville Center
12:00PM 28.0181 -84.9989 285° West 349 402 43,000  Level Jacksonville Center
12:01PM 28.0453 -85.1053 286° West 349 402 43,000  Level Jacksonville Center
12:02PM 28.0747 -85.2142 287° West 349 402 43,000  Level Jacksonville Center
12:03PM 28.1022 -85.3114 288° West 343 395 43,000  Level Jacksonville Center
12:04PM 28.1314 -85.4250 286° West 348 400 43,000  Level Jacksonville Center
12:05PM 28.1583 -85.5269 287° West 348 400 43,000  Level Jacksonville Center
12:06PM 28.1875 -85.6358 287° West 359 413 43,000  Level Jacksonville Center
12:07PM 28.2164 -85.7428 287° West 359 413 43,000  Level Jacksonville Center
12:08PM 28.2453 -85.8519 287° West 359 413 43,000  Level Jacksonville Center
12:09PM 28.2739 -85.9611 287° West 364 419 43,000  Level Jacksonville Center
12:10PM 28.3006 -86.0656 286° West 358 412 43,000  Level Jacksonville Center
12:11PM 28.3292 -86.1725 287° West 358 412 43,000  Level Jacksonville Center
12:12PM 28.3558 -86.2794 286° West 358 412 43,000  Level Jacksonville Center
12:13PM 28.3861 -86.3867 288° West 358 412 43,000  Level Jacksonville Center
12:14PM 28.4125 -86.4961 285° West 358 412 43,000  Level Jacksonville Center
12:15PM 28.4386 -86.5986 286° West 358 412 43,000  Level Jacksonville Center
12:16PM 28.4667 -86.7083 286° West 358 412 43,000  Level Jacksonville Center
12:17PM 28.4928 -86.8156 286° West 363 418 43,000  Level Jacksonville Center
12:18PM 28.5208 -86.9228 287° West 358 412 43,000  Level Jacksonville Center
12:19PM 28.5425 -87.0231 284° West 353 406 43,000  Level Jacksonville Center
12:20PM 28.5744 -87.1353 288° West 359 413 43,000  Level Jacksonville Center
12:20PM 28.5894 -87.1969 285° West 352 405 43,000  Level Houston Center
12:22PM 28.6161 -87.3036 286° West 352 405 43,000  Level Houston Center
12:23PM 28.6425 -87.4108 286° West 352 405 43,000  Level Houston Center
12:24PM 28.6697 -87.5183 286° West 353 406 43,000  Level Houston Center
12:25PM 28.7011 -87.6481 285° West 353 406 43,000  Level Houston Center
12:26PM 28.7267 -87.7561 285° West 353 406 43,000  Level Houston Center
12:27PM 28.7536 -87.8622 286° West 351 404 43,000  Level Houston Center
12:28PM 28.7792 -87.9703 285° West 354 407 43,000  Level Houston Center
12:29PM 28.8058 -88.0786 286° West 355 409 43,000  Level Houston Center
12:30PM 28.8350 -88.2044 285° West 355 409 43,000  Level Houston Center
12:31PM 28.8614 -88.3108 286° West 352 405 43,000  Level Houston Center
12:32PM 28.8875 -88.4206 285° West 355 409 43,000  Level Houston Center
12:33PM 28.9128 -88.5297 285° West 357 411 43,000  Level Houston Center
12:34PM 28.9392 -88.6392 285° West 357 411 43,000  Level Houston Center
12:35PM 28.9697 -88.7717 285° West 359 413 43,000  Level Houston Center
12:36PM 28.9956 -88.8808 285° West 358 412 43,000  Level Houston Center
12:37PM 29.0214 -88.9906 285° West 358 412 43,000  Level Houston Center
12:38PM 29.0464 -89.1000 285° West 358 412 43,000  Level Houston Center
12:39PM 29.0714 -89.2100 285° West 357 411 43,000  Level Houston Center
12:40PM 29.0972 -89.3197 285° West 357 411 43,000  Level Houston Center
12:41PM 29.1272 -89.4506 285° West 355 409 43,000  Level Houston Center
12:42PM 29.1528 -89.5606 285° West 357 411 43,000  Level Houston Center
12:43PM 29.1767 -89.6717 284° West 359 413 43,000  Level Houston Center
12:44PM 29.2022 -89.7814 285° West 358 412 43,000  Level Houston Center
12:45PM 29.2269 -89.8911 285° West 357 411 43,000  Level Houston Center
12:46PM 29.2514 -90.0011 284° West 357 411 43,000  Level Houston Center
12:47PM 29.2769 -90.1114 285° West 357 411 43,000  Level Houston Center
12:48PM 29.3058 -90.2436 284° West 357 411 43,000  Level Houston Center
12:49PM 29.3306 -90.3544 284° West 358 412 43,000  Level Houston Center
12:51PM 29.3558 -90.4647 285° West 358 412 43,000  Level Houston Center
12:52PM 29.3794 -90.5739 284° West 355 409 43,000  Level Houston Center
12:53PM 29.4028 -90.6850 284° West 359 413 43,000  Level Houston Center
12:54PM 29.4281 -90.7939 285° West 355 409 43,000  Level Houston Center
12:55PM 29.4561 -90.9253 284° West 354 407 43,000  Level Houston Center
12:56PM 29.4794 -91.0344 284° West 351 404 43,000  Level Houston Center
12:57PM 29.5033 -91.1436 284° West 352 405 43,000  Level Houston Center
12:58PM 29.5269 -91.2525 284° West 352 405 43,000  Level Houston Center
12:59PM 29.5497 -91.3606 284° West 350 403 43,000  Level Houston Center
01:00PM 29.5736 -91.4694 284° West 350 403 43,000  Level Houston Center
01:01PM 29.6003 -91.6003 283° West 350 403 43,000  Level Houston Center
01:02PM 29.6242 -91.7097 284° West 353 406 43,000  Level Houston Center
01:03PM 29.6464 -91.8169 283° West 349 402 43,000  Level Houston Center
01:04PM 29.6681 -91.9278 283° West 353 406 43,000  Level Houston Center
01:05PM 29.6914 -92.0356 284° West 350 403 43,000  Level Houston Center
01:06PM 29.7139 -92.1439 283° West 349 402 43,000  Level Houston Center
01:07PM 29.7411 -92.2722 284° West 346 398 43,000  Level Houston Center
01:08PM 29.7633 -92.3806 283° West 347 399 43,000  Level Houston Center
01:09PM 29.7850 -92.4894 283° West 349 402 43,000  Level Houston Center
01:10PM 29.8069 -92.5978 283° West 348 400 43,000  Level Houston Center
01:11PM 29.8294 -92.7053 284° West 347 399 43,000  Level Houston Center
01:12PM 29.8558 -92.8356 283° West 348 400 43,000  Level Houston Center
01:13PM 29.8772 -92.9453 283° West 352 405 43,000  Level Houston Center
01:14PM 29.8992 -93.0544 283° West 351 404 43,000  Level Houston Center
01:15PM 29.9206 -93.1639 283° West 351 404 43,000  Level Houston Center
01:16PM 29.9431 -93.2736 283° West 352 405 43,000  Level Houston Center
01:17PM 29.9647 -93.3833 283° West 351 404 43,000  Level Houston Center
01:18PM 29.9861 -93.4944 283° West 353 406 43,000  Level Houston Center
01:19PM 30.0119 -93.6283 283° West 353 406 43,000  Level Houston Center
01:21PM 30.0336 -93.7394 283° West 354 407 43,000  Level Houston Center
01:22PM 30.0547 -93.8503 282° West 353 406 43,000  Level Houston Center
01:23PM 30.0775 -93.9606 283° West 351 404 43,000  Level Houston Center
01:24PM 30.0983 -94.0700 282° West 350 403 43,000  Level Houston Center
01:25PM 30.1183 -94.1794 282° West 349 402 43,000  Level Houston Center
01:26PM 30.1394 -94.2872 283° West 345 397 43,000  Level Houston Center
01:27PM 30.1636 -94.4189 282° West 347 399 43,000  Level Houston Center
01:28PM 30.1842 -94.5297 282° West 346 398 43,000  Level Houston Center
01:29PM 30.2056 -94.6383 283° West 348 400 43,000  Level Houston Center
01:30PM 30.2250 -94.7467 282° West 347 399 43,000  Level Houston Center
01:31PM 30.2442 -94.8556 282° West 347 399 43,000  Level Houston Center
01:32PM 30.2647 -94.9656 282° West 351 404 43,000  Level Houston Center
01:33PM 30.2889 -95.0975 282° West 352 405 43,000  Level Houston Center
01:34PM 30.3089 -95.2075 282° West 351 404 43,000  Level Houston Center
01:35PM 30.3286 -95.3147 282° West 347 399 43,000  Level Houston Center
01:36PM 30.3483 -95.4250 282° West 352 405 43,000  Level Houston Center
01:37PM 30.3675 -95.5342 282° West 350 403 43,000  Level Houston Center
01:38PM 30.3872 -95.6433 282° West 348 400 43,000  Level Houston Center
01:39PM 30.4103 -95.7739 282° West 347 399 43,000  Level Houston Center
01:40PM 30.4294 -95.8822 282° West 346 398 43,000  Level Houston Center
01:41PM 30.4494 -95.9914 282° West 347 399 43,000  Level Houston Center
01:42PM 30.4697 -96.1119 281° West 348 400 43,000  Level Houston Center
01:43PM 30.4886 -96.2222 281° West 346 398 43,000  Level Houston Center
01:44PM 30.5083 -96.3328 282° West 347 399 43,000  Level Houston Center
01:45PM 30.5272 -96.4436 281° West 347 399 43,000 60 Level Houston Center
01:46PM 30.5456 -96.5542 281° West 347 399 43,200 180 Climbing Houston Center
01:47PM 30.5636 -96.6650 281° West 349 402 43,400 180 Climbing Houston Center
01:48PM 30.5833 -96.7761 282° West 349 402 43,600 180 Climbing Houston Center
01:49PM 30.6056 -96.9042 281° West 345 397 43,800 180 Climbing Houston Center
01:50PM 30.6233 -97.0136 281° West 342 394 44,000 180 Climbing Houston Center
01:52PM 30.6406 -97.1222 280° West 338 389 44,200 180 Climbing Houston Center
01:53PM 30.6592 -97.2311 281° West 338 389 44,400 180 Climbing Houston Center
01:54PM 30.6764 -97.3394 280° West 336 387 44,600 180 Climbing Houston Center
01:55PM 30.6936 -97.4475 281° West 334 384 44,800 180 Climbing Houston Center
01:56PM 30.7114 -97.5547 281° West 333 383 45,000 60 Climbing Houston Center
01:57PM 30.7286 -97.6617 281° West 332 382 45,000  Level Houston Center
01:58PM 30.7456 -97.7703 280° West 337 388 45,000  Level Houston Center
01:59PM 30.7639 -97.8778 281° West 336 387 45,000  Level Houston Center
02:00PM 30.7806 -97.9844 280° West 335 386 45,000  Level Houston Center
02:01PM 30.8003 -98.1100 280° West 334 384 45,000  Level Houston Center
02:02PM 30.8169 -98.2153 280° West 330 380 45,000  Level Houston Center
02:03PM 30.8336 -98.3203 280° West 327 376 45,000  Level Houston Center
02:04PM 30.8503 -98.4247 281° West 325 374 45,000  Level Houston Center
02:05PM 30.8667 -98.5314 280° West 330 380 45,000  Level Houston Center
02:06PM 30.8875 -98.6358 283° West 328 377 45,000  Level Houston Center
02:07PM 30.9133 -98.7419 286° West 335 386 45,000  Level Houston Center
02:08PM 30.9392 -98.8486 286° West 338 389 45,000  Level Houston Center
02:09PM 30.9692 -98.9728 286° West 338 389 45,000  Level Houston Center
02:10PM 30.9933 -99.0794 285° West 338 389 45,000  Level Houston Center
02:11PM 31.0192 -99.1825 286° West 339 390 45,000  Level Houston Center
02:12PM 31.0436 -99.2881 285° West 339 390 45,000  Level Houston Center
02:13PM 31.0692 -99.3942 286° West 340 391 45,000  Level Houston Center
02:14PM 31.0933 -99.5003 285° West 340 391 45,000  Level Houston Center
02:15PM 31.1233 -99.6283 285° West 342 394 45,000  Level Houston Center
02:16PM 31.1494 -99.7344 286° West 341 392 45,000  Level Houston Center
02:17PM 31.1731 -99.8400 285° West 338 389 45,000  Level Houston Center
02:18PM 31.1989 -99.9469 286° West 342 394 45,000  Level Houston Center
02:19PM 31.2233 -100.0531 285° West 340 391 45,000  Level Houston Center
02:20PM 31.2519 -100.1797 285° West 338 389 45,000  Level Houston Center
02:21PM 31.2761 -100.2856 285° West 337 388 45,000  Level Houston Center
02:22PM 31.3006 -100.3911 285° West 336 387 45,000  Level Houston Center
02:24PM 31.3236 -100.4975 284° West 337 388 45,000  Level Houston Center
02:25PM 31.3489 -100.6033 286° West 340 391 45,000  Level Houston Center
02:26PM 31.3722 -100.7097 284° West 339 390 45,000  Level Houston Center
02:26PM 31.3919 -100.7992 285° West 341 392 45,000  Level Fort Worth Center
02:27PM 31.4211 -100.9292 285° West 345 397 45,000  Level Fort Worth Center
02:28PM 31.4458 -101.0364 285° West 343 395 45,000  Level Fort Worth Center
02:30PM 31.4697 -101.1450 284° West 344 396 45,000  Level Fort Worth Center
02:31PM 31.4933 -101.2533 284° West 345 397 45,000  Level Fort Worth Center
02:32PM 31.5167 -101.3617 284° West 344 396 45,000  Level Fort Worth Center
02:33PM 31.5419 -101.4706 285° West 347 399 45,000  Level Fort Worth Center
02:34PM 31.5650 -101.5797 284° West 347 399 45,000  Level Fort Worth Center
02:35PM 31.5931 -101.7097 284° West 344 396 45,000  Level Fort Worth Center
02:36PM 31.6164 -101.8192 284° West 347 399 45,000  Level Fort Worth Center
02:37PM 31.6397 -101.9292 284° West 349 402 45,000  Level Fort Worth Center
02:38PM 31.6636 -102.0389 284° West 350 403 45,000  Level Fort Worth Center
02:39PM 31.6867 -102.1511 284° West 355 409 45,000  Level Fort Worth Center
02:40PM 31.7139 -102.2856 283° West 357 411 45,000  Level Fort Worth Center
02:41PM 31.7378 -102.3969 284° West 356 410 45,000  Level Fort Worth Center
02:42PM 31.7594 -102.5083 283° West 353 406 45,000  Level Fort Worth Center
02:43PM 31.7850 -102.6286 284° West 351 404 45,000  Level Albuquerque Center
02:44PM 31.8075 -102.7383 284° West 348 400 45,000  Level Albuquerque Center
02:45PM 31.8311 -102.8492 284° West 349 402 45,000  Level Albuquerque Center
02:46PM 31.8528 -102.9581 283° West 346 398 45,000  Level Albuquerque Center
02:47PM 31.8808 -103.0919 284° West 349 402 45,000  Level Albuquerque Center
02:48PM 31.9036 -103.2017 284° West 348 400 45,000  Level Albuquerque Center
02:49PM 31.9264 -103.3125 284° West 349 402 45,000  Level Albuquerque Center
02:50PM 31.9486 -103.4233 283° West 348 400 45,000  Level Albuquerque Center
02:51PM 31.9708 -103.5347 283° West 350 403 45,000  Level Albuquerque Center
02:52PM 31.9931 -103.6464 283° West 351 404 45,000  Level Albuquerque Center
02:53PM 32.0153 -103.7589 283° West 352 405 45,000  Level Albuquerque Center
02:54PM 32.0425 -103.8944 283° West 354 407 45,000  Level Albuquerque Center
02:55PM 32.0636 -104.0078 282° West 355 409 45,000  Level Albuquerque Center
02:56PM 32.0875 -104.1269 283° West 357 411 45,000  Level Albuquerque Center
02:57PM 32.1089 -104.2422 282° West 360 414 45,000  Level Albuquerque Center
02:58PM 32.1311 -104.3561 283° West 359 413 45,000  Level Albuquerque Center
02:59PM 32.1539 -104.4706 283° West 359 413 45,000  Level Albuquerque Center
03:00PM 32.1756 -104.5861 283° West 361 415 45,000  Level Albuquerque Center
03:02PM 32.1969 -104.7014 282° West 362 417 45,000  Level Albuquerque Center
03:03PM 32.2186 -104.8181 282° West 364 419 45,000  Level Albuquerque Center
03:04PM 32.2444 -104.9583 282° West 367 422 45,000  Level Albuquerque Center
03:05PM 32.2675 -105.0753 283° West 367 422 45,000  Level Albuquerque Center
03:06PM 32.2892 -105.1933 282° West 368 423 45,000  Level Albuquerque Center
03:07PM 32.3103 -105.3100 282° West 367 422 45,000  Level Albuquerque Center
03:08PM 32.3317 -105.4269 282° West 366 421 45,000  Level Albuquerque Center
03:09PM 32.3533 -105.5433 282° West 365 420 45,000  Level Albuquerque Center
03:10PM 32.3747 -105.6600 282° West 364 419 45,000  Level Albuquerque Center
03:11PM 32.3994 -105.8000 282° West 363 418 45,000  Level Albuquerque Center
03:12PM 32.4208 -105.9167 282° West 363 418 45,000  Level Albuquerque Center
03:13PM 32.4408 -106.0342 281° West 364 419 45,000  Level Albuquerque Center
03:14PM 32.4619 -106.1508 282° West 364 419 45,000  Level Albuquerque Center
03:15PM 32.4808 -106.2589 282° West 364 419 45,000  Level Albuquerque Center
03:16PM 32.5056 -106.3997 282° West 365 420 45,000  Level Albuquerque Center
03:17PM 32.5264 -106.5172 282° West 364 419 45,000  Level Albuquerque Center
03:18PM 32.5464 -106.6353 281° West 367 422 45,000  Level Albuquerque Center
03:19PM 32.5675 -106.7525 282° West 365 420 45,000  Level Albuquerque Center
03:20PM 32.5892 -106.8808 281° West 368 423 45,000  Level Albuquerque Center
03:21PM 32.6092 -106.9986 281° West 367 422 45,000  Level Albuquerque Center
03:22PM 32.6294 -107.1156 282° West 364 419 45,000  Level Albuquerque Center
03:23PM 32.6506 -107.2439 281° West 367 422 45,000  Level Albuquerque Center
03:24PM 32.6703 -107.3622 281° West 367 422 45,000  Level Albuquerque Center
03:25PM 32.6889 -107.4808 281° West 366 421 45,000  Level Albuquerque Center
03:26PM 32.7069 -107.5961 281° West 368 423 45,000  Level Albuquerque Center
03:27PM 32.7269 -107.7150 281° West 368 423 45,000  Level Albuquerque Center
03:28PM 32.7500 -107.8578 281° West 368 423 45,000  Level Albuquerque Center
03:29PM 32.7692 -107.9778 281° West 370 426 45,000  Level Albuquerque Center
03:30PM 32.7883 -108.0981 281° West 371 427 45,000  Level Albuquerque Center
03:31PM 32.8097 -108.2242 281° West 372 428 45,000  Level Albuquerque Center
03:32PM 32.8292 -108.3447 281° West 372 428 45,000  Level Albuquerque Center
03:33PM 32.8483 -108.4653 281° West 372 428 45,000  Level Albuquerque Center
03:34PM 32.8672 -108.5850 281° West 370 426 45,000  Level Albuquerque Center
03:35PM 32.8867 -108.7064 281° West 372 428 45,000  Level Albuquerque Center
03:36PM 32.9086 -108.8464 281° West 377 434 45,000  Level Albuquerque Center
03:37PM 32.9272 -108.9661 281° West 372 428 45,000  Level Albuquerque Center
03:38PM 32.9475 -109.0875 281° West 373 429 45,000  Level Albuquerque Center
03:39PM 32.9625 -109.2028 279° West 375 432 45,000  Level Albuquerque Center
03:40PM 32.9806 -109.3261 280° West 378 435 45,000  Level Albuquerque Center
03:41PM 33.0003 -109.4517 281° West 383 441 45,000  Level Albuquerque Center
03:43PM 33.0219 -109.6017 280° West 384 442 45,000  Level Albuquerque Center
03:44PM 33.0411 -109.7247 281° West 380 437 45,000  Level Albuquerque Center
03:45PM 33.0589 -109.8497 280° West 383 441 45,000  Level Albuquerque Center
03:46PM 33.0778 -109.9733 280° West 380 437 45,000  Level Albuquerque Center
03:47PM 33.0958 -110.0986 280° West 383 441 45,000  Level Albuquerque Center
03:48PM 33.1139 -110.2231 280° West 382 440 45,000  Level Albuquerque Center
03:49PM 33.1319 -110.3469 280° West 382 440 45,000  Level Albuquerque Center
03:50PM 33.1497 -110.4722 280° West 383 441 45,000  Level Albuquerque Center
03:51PM 33.1700 -110.6219 279° West 382 440 45,000  Level Albuquerque Center
03:52PM 33.1869 -110.7389 280° West 379 436 45,000  Level Albuquerque Center
03:53PM 33.2036 -110.8642 279° West 380 437 45,000  Level Albuquerque Center
03:54PM 33.2219 -110.9872 280° West 378 435 45,000  Level Albuquerque Center
03:55PM 33.2364 -111.1125 278° West 380 437 45,000  Level Albuquerque Center
03:56PM 33.2531 -111.2364 279° West 378 435 45,000  Level Albuquerque Center
03:57PM 33.2736 -111.3850 279° West 377 434 45,000  Level Albuquerque Center
03:58PM 33.2894 -111.5092 279° West 378 435 45,000  Level Albuquerque Center
03:59PM 33.3053 -111.6331 279° West 377 434 45,000  Level Albuquerque Center
04:00PM 33.3217 -111.7589 279° West 380 437 45,000 -420 Level Albuquerque Center
04:01PM 33.3378 -111.8850 279° West 382 440 44,200 -900 Descending Albuquerque Center
04:02PM 33.3539 -112.0142 279° West 387 445 43,200 -1,020 Descending Albuquerque Center
04:03PM 33.3700 -112.1447 278° West 392 451 42,200 -1,020 Descending Albuquerque Center
04:04PM 33.3869 -112.2808 279° West 404 465 41,200 -1,020 Descending Albuquerque Center
04:05PM 33.4042 -112.4158 279° West 408 470 40,200 -600 Descending Albuquerque Center
04:06PM 33.4197 -112.5464 278° West 398 458 40,000 -120 Descending Albuquerque Center
04:07PM 33.4383 -112.6950 279° West 401 461 40,000  Level Albuquerque Center
04:08PM 33.4550 -112.8278 279° West 404 465 40,000 -360 Level Albuquerque Center
04:09PM 33.4803 -112.9611 283° West 409 471 39,300 -840 Descending Albuquerque Center
04:10PM 33.5058 -113.0967 283° West 417 480 38,300 -1,080 Descending Albuquerque Center
04:11PM 33.5297 -113.2631 280° West 423 487 37,100 -1,020 Descending Albuquerque Center
04:12PM 33.5458 -113.3994 278° West 419 482 36,200 -600 Descending Albuquerque Center
04:13PM 33.5625 -113.5386 278° West 421 484 35,900 -660 Descending Albuquerque Center
04:14PM 33.5786 -113.6772 278° West 422 486 34,900 -960 Descending Albuquerque Center
04:15PM 33.5944 -113.8169 278° West 423 487 34,000 -480 Descending Albuquerque Center
04:16PM 33.6131 -113.9767 278° West 431 496 34,000  Level Albuquerque Center
04:17PM 33.6303 -114.1192 278° West 433 498 34,000  Level Albuquerque Center
04:18PM 33.6464 -114.2728 277° West 432 497 34,000  Level Albuquerque Center
04:19PM 33.6631 -114.4167 278° West 435 501 34,000  Level Albuquerque Center
04:20PM 33.6739 -114.5131 278° West 439 505 34,000  Level Los Angeles Center
04:21PM 33.6906 -114.6564 278° West 436 502 34,000  Level Los Angeles Center
04:22PM 33.7097 -114.8272 278° West 432 497 34,000  Level Los Angeles Center
04:23PM 33.7239 -114.9725 277° West 437 503 34,000  Level Los Angeles Center
04:24PM 33.7428 -115.1436 278° West 433 498 34,000  Level Los Angeles Center
04:26PM 33.7572 -115.2856 277° West 431 496 34,000  Level Los Angeles Center
04:27PM 33.7725 -115.4300 277° West 436 502 34,000  Level Los Angeles Center
04:28PM 33.7908 -115.6036 277° West 439 505 34,000  Level Los Angeles Center
04:29PM 33.8036 -115.7475 276° West 434 499 34,000  Level Los Angeles Center
04:30PM 33.8186 -115.8853 278° West 420 483 34,000 -660 Level Los Angeles Center
04:31PM 33.8311 -116.0228 276° West 418 481 32,700 -2,040 Descending Los Angeles Center
04:32PM 33.8450 -116.1592 277° West 415 478 29,800 -2,880 Descending Los Angeles Center
04:33PM 33.8578 -116.2983 276° West 420 483 26,800 -3,120 Descending Los Angeles Center
04:34PM 33.8714 -116.4594 276° West 410 472 23,400 -3,180 Descending Los Angeles Center
04:35PM 33.8786 -116.5878 274° West 394 453 20,300 -2,940 Descending Los Angeles Center
04:36PM 33.8836 -116.7125 273° West 381 438 17,400 -3,000 Descending Los Angeles Center
04:37PM 33.8900 -116.8344 274° West 373 429 14,100 -2,220 Descending Los Angeles Center
04:37PM 33.8833 -116.9000 263° West 359 413 14,000 -600 Descending Southern California TRACON
04:38PM 33.8744 -116.9514 258° West 361 415 13,500 -1,140 Descending Los Angeles Center
04:39PM 33.8531 -117.0931 260° West 359 413 12,300 -1,020 Descending Los Angeles Center
04:40PM 33.8367 -117.2078 260° West 354 407 11,400 -900 Descending Los Angeles Center
04:41PM 33.8217 -117.3122 260° West 326 375 10,500 -900 Descending Los Angeles Center
04:42PM 33.8069 -117.4042 259° West 288 331 9,600 -840 Descending Los Angeles Center
04:43PM 33.7939 -117.4981 261° West 287 330 8,800 -840 Descending Los Angeles Center
04:44PM 33.7858 -117.5769 263° West 259 298 7,900 -1,020 Descending Los Angeles Center
04:45PM 33.8036 -117.6508 286° West 209 241 6,800 -1,080 Descending Los Angeles Center
04:46PM 33.8286 -117.7042 299° West 192 221 5,700 -1,140 Descending Los Angeles Center
04:47PM 33.8136 -117.7600 252° West 183 211 4,500 -1,260 Descending Los Angeles Center
04:48PM 33.7822 -117.8022 228° Southwest 171 197 3,100 -1,260 Descending Los Angeles Center
04:49PM 33.7417 -117.8267 207° Southwest 164 189 1,900 -1,140 Descending Los Angeles Center
04:50PM 33.7022 -117.8517 208° Southwest 148 170 800 -840 Descending Los Angeles Center
04:51PM 33.6764 -117.8681 208° Southwest 139 160 200 -600 Descending Los Angeles Center
04:53PM 33.6757 -117.8682 132° Southeast  Level Estimated
05:00PM 33.6757 -117.8682 132° Southeast  Level Estimated